createdAt,value
2022-09-28T00:04:23.716Z,96181.72
2022-09-28T00:06:51.992Z,96174.63
2022-09-28T00:09:21.663Z,96182.19
2022-09-28T00:11:49.864Z,96170.59
2022-09-28T00:14:18.117Z,96171.41
2022-09-28T00:16:46.435Z,96184.47
2022-09-28T00:19:15.126Z,96164.28
2022-09-28T00:21:44.091Z,96162.44
2022-09-28T00:24:15.241Z,96153.69
2022-09-28T00:26:48.913Z,96154.69
2022-09-28T00:29:21.995Z,96138.78
2022-09-28T00:31:53.295Z,96141.44
2022-09-28T00:34:21.992Z,96132.50
2022-09-28T00:36:50.337Z,96126.19
2022-09-28T00:39:19.264Z,96130.47
2022-09-28T00:41:50.198Z,96128.00
2022-09-28T00:44:41.053Z,96124.72
2022-09-28T00:47:27.933Z,96128.91
2022-09-28T00:50:00.953Z,96124.81
2022-09-28T00:52:35.701Z,96120.91
2022-09-28T00:55:09.022Z,96116.44
2022-09-28T00:57:41.772Z,96117.59
2022-09-28T01:00:11.837Z,96116.81
2022-09-28T01:02:40.182Z,96113.31
2022-09-28T01:05:10.885Z,96109.22
2022-09-28T01:07:39.475Z,96103.28
2022-09-28T01:10:09.793Z,96111.41
2022-09-28T01:12:39.569Z,96115.88
2022-09-28T01:15:08.874Z,96105.47
2022-09-28T01:17:51.029Z,96100.53
2022-09-28T01:20:40.743Z,96100.72
2022-09-28T01:23:50.405Z,96097.44
2022-09-28T01:26:44.591Z,96096.78
2022-09-28T01:29:23.230Z,96085.84
2022-09-28T01:31:59.737Z,96073.84
2022-09-28T01:34:35.688Z,96081.25
2022-09-28T01:37:08.335Z,96071.09
2022-09-28T01:39:40.790Z,96060.97
2022-09-28T01:42:15.758Z,96056.94
2022-09-28T01:44:47.754Z,96051.44
2022-09-28T01:47:19.225Z,96046.41
2022-09-28T01:49:50.541Z,96028.84
2022-09-28T01:52:24.384Z,96024.03
2022-09-28T01:54:59.604Z,96005.28
2022-09-28T01:57:35.759Z,96010.38
2022-09-28T02:00:08.827Z,95997.94
2022-09-28T02:02:41.432Z,96006.06
2022-09-28T02:05:15.139Z,95989.38
2022-09-28T02:07:49.886Z,95996.50
2022-09-28T02:10:24.651Z,96000.16
2022-09-28T02:13:02.055Z,95987.28
2022-09-28T02:15:37.584Z,95982.38
2022-09-28T02:18:06.491Z,95982.00
2022-09-28T02:20:37.868Z,95979.94
2022-09-28T02:23:06.447Z,95973.47
2022-09-28T02:25:40.953Z,95967.78
2022-09-28T02:28:14.270Z,95969.25
2022-09-28T02:30:45.356Z,95956.44
2022-09-28T02:33:16.822Z,95952.75
2022-09-28T02:35:45.220Z,95955.03
2022-09-28T02:38:15.616Z,95951.19
2022-09-28T02:40:54.213Z,95944.50
2022-09-28T02:43:28.375Z,95943.28
2022-09-28T02:46:07.332Z,95943.94
2022-09-28T02:49:10.516Z,95929.66
2022-09-28T02:51:49.871Z,95922.34
2022-09-28T02:54:38.899Z,95930.09
2022-09-28T02:57:19.686Z,95917.44
2022-09-28T03:00:08.008Z,95922.75
2022-09-28T03:02:42.912Z,95910.34
2022-09-28T03:05:20.161Z,95911.97
2022-09-28T03:07:59.444Z,95915.25
2022-09-28T03:10:39.362Z,95905.28
2022-09-28T03:13:08.884Z,95904.06
2022-09-28T03:15:38.851Z,95890.41
2022-09-28T03:18:07.212Z,95881.44
2022-09-28T03:20:35.889Z,95883.72
2022-09-28T03:25:53.020Z,95865.97
2022-09-28T03:28:22.068Z,95865.78
2022-09-28T03:30:51.807Z,95857.63
2022-09-28T03:33:20.335Z,95851.94
2022-09-28T03:35:50.343Z,95848.44
2022-09-28T03:38:18.992Z,95852.53
2022-09-28T03:40:54.840Z,95844.59
2022-09-28T03:43:23.598Z,95839.09
2022-09-28T03:45:58.456Z,95835.63
2022-09-28T03:48:32.076Z,95832.16
2022-09-28T03:51:02.790Z,95829.31
2022-09-28T03:53:31.379Z,95822.38
2022-09-28T03:56:04.583Z,95810.09
2022-09-28T03:58:33.364Z,95813.38
2022-09-28T04:01:10.771Z,95800.13
2022-09-28T04:03:41.214Z,95800.94
2022-09-28T04:06:09.683Z,95794.56
2022-09-28T04:08:37.915Z,95795.00
2022-09-28T04:11:06.455Z,95786.22
2022-09-28T04:13:34.779Z,95789.72
2022-09-28T04:16:03.846Z,95781.31
2022-09-28T04:18:34.592Z,95783.38
2022-09-28T04:21:06.690Z,95778.47
2022-09-28T04:23:36.139Z,95777.44
2022-09-28T04:26:04.916Z,95768.25
2022-09-28T04:28:50.770Z,95771.88
2022-09-28T04:31:22.278Z,95772.91
2022-09-28T04:33:51.965Z,95773.94
2022-09-28T04:36:20.727Z,95763.31
2022-09-28T04:38:53.303Z,95763.13
2022-09-28T04:41:22.874Z,95758.44
2022-09-28T04:43:51.555Z,95753.94
2022-09-28T04:46:20.338Z,95753.75
2022-09-28T04:48:48.694Z,95746.81
2022-09-28T04:51:18.360Z,95748.25
2022-09-28T04:53:46.875Z,95751.50
2022-09-28T04:56:17.298Z,95750.66
2022-09-28T04:58:51.762Z,95749.63
2022-09-28T05:01:23.709Z,95750.88
2022-09-28T05:03:52.426Z,95742.91
2022-09-28T05:06:22.982Z,95739.22
2022-09-28T05:08:51.256Z,95744.31
2022-09-28T05:11:21.366Z,95741.69
2022-09-28T05:13:50.450Z,95742.50
2022-09-28T05:16:20.484Z,95735.53
2022-09-28T05:18:48.865Z,95730.88
2022-09-28T05:21:19.597Z,95736.75
2022-09-28T05:23:49.523Z,95727.00
2022-09-28T05:26:18.122Z,95727.19
2022-09-28T05:28:46.414Z,95724.34
2022-09-28T05:31:14.979Z,95717.63
2022-09-28T05:33:43.443Z,95726.56
2022-09-28T05:36:12.427Z,95722.91
2022-09-28T05:38:40.706Z,95728.41
2022-09-28T05:41:10.462Z,95718.78
2022-09-28T05:43:39.445Z,95708.97
2022-09-28T05:46:08.379Z,95714.28
2022-09-28T05:48:36.879Z,95710.84
2022-09-28T05:51:05.299Z,95712.25
2022-09-28T05:53:33.557Z,95719.44
2022-09-28T05:56:02.264Z,95719.47
2022-09-28T05:58:31.957Z,95712.31
2022-09-28T06:01:00.325Z,95718.25
2022-09-28T06:03:29.050Z,95713.16
2022-09-28T06:05:57.382Z,95704.59
2022-09-28T06:08:25.647Z,95702.53
2022-09-28T06:10:53.884Z,95701.94
2022-09-28T06:13:22.135Z,95699.94
2022-09-28T06:15:51.760Z,95697.66
2022-09-28T06:18:20.107Z,95698.69
2022-09-28T06:20:48.380Z,95685.66
2022-09-28T06:23:16.875Z,95685.66
2022-09-28T06:25:45.361Z,95687.56
2022-09-28T06:28:15.554Z,95688.59
2022-09-28T06:30:45.267Z,95678.38
2022-09-28T06:33:16.400Z,95679.81
2022-09-28T06:35:44.848Z,95674.28
2022-09-28T06:38:13.385Z,95681.66
2022-09-28T06:40:41.671Z,95682.69
2022-09-28T06:43:15.149Z,95680.22
2022-09-28T06:45:44.447Z,95674.72
2022-09-28T06:48:15.060Z,95677.78
2022-09-28T06:50:43.752Z,95683.28
2022-09-28T06:53:15.268Z,95683.47
2022-09-28T06:55:48.244Z,95683.28
2022-09-28T06:58:20.145Z,95684.63
2022-09-28T07:00:49.837Z,95685.13
2022-09-28T07:03:21.616Z,95681.88
2022-09-28T07:05:53.925Z,95675.75
2022-09-28T07:08:25.456Z,95685.75
2022-09-28T07:10:56.293Z,95680.88
2022-09-28T07:16:14.718Z,95675.78
2022-09-28T07:18:44.567Z,95677.59
2022-09-28T07:21:24.258Z,95682.06
2022-09-28T07:23:55.251Z,95684.13
2022-09-28T07:26:24.754Z,95691.09
2022-09-28T07:28:55.826Z,95704.75
2022-09-28T07:31:26.226Z,95698.59
2022-09-28T07:33:56.419Z,95704.94
2022-09-28T07:36:24.726Z,95709.41
2022-09-28T07:38:53.145Z,95717.56
2022-09-28T07:41:32.189Z,95711.88
2022-09-28T07:44:06.089Z,95727.34
2022-09-28T07:46:35.025Z,95738.28
2022-09-28T07:49:08.365Z,95733.81
2022-09-28T07:51:39.811Z,95746.03
2022-09-28T07:54:08.221Z,95741.34
2022-09-28T07:56:36.502Z,95738.03
2022-09-28T07:59:04.839Z,95739.28
2022-09-28T08:01:33.161Z,95737.50
2022-09-28T08:04:01.609Z,95746.94
2022-09-28T08:06:32.355Z,95756.34
2022-09-28T08:09:01.891Z,95747.53
2022-09-28T08:11:30.743Z,95735.75
2022-09-28T08:14:00.247Z,95739.84
2022-09-28T08:16:30.207Z,95740.44
2022-09-28T08:18:58.561Z,95738.22
2022-09-28T08:21:44.365Z,95737.03
2022-09-28T08:24:15.508Z,95742.56
2022-09-28T08:26:44.273Z,95743.19
2022-09-28T08:29:13.001Z,95741.16
2022-09-28T08:31:41.290Z,95736.28
2022-09-28T08:34:09.916Z,95734.22
2022-09-28T08:36:39.438Z,95738.34
2022-09-28T08:39:07.911Z,95747.91
2022-09-28T08:41:47.564Z,95746.47
2022-09-28T08:44:24.013Z,95749.75
2022-09-28T08:46:56.783Z,95743.84
2022-09-28T08:49:31.075Z,95746.06
2022-09-28T08:52:03.866Z,95756.28
2022-09-28T08:54:41.965Z,95760.38
2022-09-28T08:57:17.570Z,95765.69
2022-09-28T08:59:51.495Z,95759.16
2022-09-28T09:02:25.459Z,95766.72
2022-09-28T09:04:54.512Z,95768.56
2022-09-28T09:07:59.407Z,95766.53
2022-09-28T09:10:48.959Z,95776.53
2022-09-28T09:13:45.769Z,95778.97
2022-09-28T09:16:30.657Z,95773.47
2022-09-28T09:19:13.927Z,95778.97
2022-09-28T09:21:43.940Z,95780.03
2022-09-28T09:24:27.274Z,95781.66
2022-09-28T09:27:07.595Z,95784.50
2022-09-28T09:30:04.899Z,95798.84
2022-09-28T09:33:08.532Z,95800.06
2022-09-28T09:36:05.279Z,95806.59
2022-09-28T09:38:46.124Z,95818.50
2022-09-28T09:41:40.291Z,95826.69
2022-09-28T09:44:44.076Z,95823.03
2022-09-28T09:47:18.183Z,95829.97
2022-09-28T09:49:50.936Z,95835.06
2022-09-28T09:52:25.691Z,95824.25
2022-09-28T09:54:59.611Z,95830.97
2022-09-28T09:57:33.533Z,95825.47
2022-09-28T10:00:04.852Z,95829.13
2022-09-28T10:02:36.774Z,95834.03
2022-09-28T10:05:19.533Z,95825.88
2022-09-28T10:07:54.249Z,95830.97
2022-09-28T10:10:28.245Z,95836.72
2022-09-28T10:12:57.109Z,95838.97
2022-09-28T10:15:28.046Z,95828.53
2022-09-28T10:18:00.376Z,95833.25
2022-09-28T10:20:30.781Z,95822.78
2022-09-28T10:23:02.149Z,95813.19
2022-09-28T10:25:34.289Z,95816.66
2022-09-28T10:28:06.240Z,95824.03
2022-09-28T10:30:42.026Z,95825.84
2022-09-28T10:33:31.198Z,95831.75
2022-09-28T10:36:01.623Z,95820.91
2022-09-28T10:38:31.653Z,95820.06
2022-09-28T10:41:02.286Z,95822.91
2022-09-28T10:43:33.564Z,95831.09
2022-09-28T10:46:06.026Z,95828.00
2022-09-28T10:48:52.289Z,95831.06
2022-09-28T10:51:20.865Z,95833.75
2022-09-28T10:54:01.751Z,95833.31
2022-09-28T10:56:37.083Z,95838.84
2022-09-28T10:59:26.522Z,95829.81
2022-09-28T11:01:57.529Z,95836.75
2022-09-28T11:04:31.369Z,95841.44
2022-09-28T11:07:01.108Z,95843.69
2022-09-28T11:09:33.346Z,95845.50
2022-09-28T11:12:05.942Z,95852.44
2022-09-28T11:14:42.213Z,95855.69
2022-09-28T11:17:19.317Z,95858.75
2022-09-28T11:19:48.907Z,95866.34
2022-09-28T11:22:28.899Z,95858.34
2022-09-28T11:25:24.164Z,95858.97
2022-09-28T11:28:04.212Z,95873.06
2022-09-28T11:30:35.860Z,95876.78
2022-09-28T11:33:08.170Z,95882.09
2022-09-28T11:35:50.529Z,95882.09
2022-09-28T11:38:34.925Z,95866.94
2022-09-28T11:41:23.074Z,95873.06
2022-09-28T11:44:18.944Z,95882.50
2022-09-28T11:47:00.475Z,95884.13
2022-09-28T11:49:36.502Z,95879.44
2022-09-28T11:52:14.990Z,95875.31
2022-09-28T11:54:49.547Z,95882.03
2022-09-28T11:57:24.027Z,95894.94
2022-09-28T11:59:59.981Z,95882.44
2022-09-28T12:02:36.595Z,95891.06
2022-09-28T12:05:19.832Z,95886.31
2022-09-28T12:07:55.160Z,95883.22
2022-09-28T12:10:44.662Z,95884.66
2022-09-28T12:13:19.495Z,95875.41
2022-09-28T12:16:17.447Z,95876.41
2022-09-28T12:18:50.122Z,95869.38
2022-09-28T12:21:36.219Z,95875.31
2022-09-28T12:24:18.159Z,95875.94
2022-09-28T12:26:54.265Z,95873.66
2022-09-28T12:29:28.540Z,95881.66
2022-09-28T12:32:07.072Z,95881.00
2022-09-28T12:34:35.377Z,95883.03
2022-09-28T12:37:20.367Z,95882.38
2022-09-28T12:40:05.848Z,95880.34
2022-09-28T12:42:52.913Z,95879.72
2022-09-28T12:46:10.907Z,95881.50
2022-09-28T12:50:19.997Z,95883.75
2022-09-28T12:52:01.455Z,95880.44
2022-09-28T12:54:50.676Z,95880.00
2022-09-28T12:57:38.518Z,95888.97
2022-09-28T13:00:11.497Z,95885.66
2022-09-28T13:03:31.206Z,95885.00
2022-09-28T13:06:24.659Z,95896.06
2022-09-28T13:09:19.957Z,95885.19
2022-09-28T13:12:06.527Z,95892.16
2022-09-28T13:15:27.800Z,95892.75
2022-09-28T13:18:05.215Z,95899.50
2022-09-28T13:21:01.260Z,95894.16
2022-09-28T13:23:35.831Z,95898.44
2022-09-28T13:26:16.587Z,95902.78
2022-09-28T13:28:46.983Z,95893.72
2022-09-28T13:31:21.938Z,95902.34
2022-09-28T13:33:52.363Z,95900.03
2022-09-28T13:36:48.040Z,95900.03
2022-09-28T13:39:39.704Z,95895.53
2022-09-28T13:42:10.821Z,95891.59
2022-09-28T13:45:04.508Z,95888.69
2022-09-28T13:47:57.982Z,95880.69
2022-09-28T13:50:42.350Z,95886.63
2022-09-28T13:53:22.084Z,95880.47
2022-09-28T13:55:58.452Z,95888.25
2022-09-28T13:58:29.525Z,95896.06
2022-09-28T14:01:05.281Z,95892.34
2022-09-28T14:03:55.928Z,95886.19
2022-09-28T14:06:27.300Z,95889.44
2022-09-28T14:09:43.488Z,95883.31
2022-09-28T14:12:50.269Z,95888.03
2022-09-28T14:15:45.335Z,95891.75
2022-09-28T14:18:24.779Z,95891.75
2022-09-28T14:21:20.239Z,95897.09
2022-09-28T14:24:04.336Z,95888.47
2022-09-28T14:27:11.555Z,95888.69
2022-09-28T14:29:41.279Z,95882.56
2022-09-28T14:32:25.641Z,95883.56
2022-09-28T14:35:00.928Z,95887.06
2022-09-28T14:37:51.469Z,95872.31
2022-09-28T14:40:40.466Z,95875.78
2022-09-28T14:43:36.857Z,95891.44
2022-09-28T14:46:43.494Z,95880.59
2022-09-28T14:49:51.292Z,95876.75
2022-09-28T14:52:44.024Z,95888.66
2022-09-28T14:55:27.616Z,95885.41
2022-09-28T14:57:59.293Z,95888.50
2022-09-28T15:00:31.810Z,95885.22
2022-09-28T15:03:07.863Z,95879.06
2022-09-28T15:05:47.107Z,95885.66
2022-09-28T15:08:18.050Z,95896.56
2022-09-28T15:10:48.262Z,95894.72
2022-09-28T15:13:22.213Z,95911.94
2022-09-28T15:15:54.675Z,95902.53
2022-09-28T15:19:06.055Z,95902.13
2022-09-28T15:21:40.157Z,95912.00
2022-09-28T15:24:32.604Z,95902.56
2022-09-28T15:27:02.082Z,95908.94
2022-09-28T15:29:33.419Z,95903.00
2022-09-28T15:32:02.352Z,95901.59
2022-09-28T15:34:50.952Z,95903.69
2022-09-28T15:37:22.978Z,95898.16
2022-09-28T15:39:55.245Z,95909.25
2022-09-28T15:42:23.833Z,95922.59
2022-09-28T15:45:26.711Z,95917.69
2022-09-28T15:48:17.215Z,95919.97
2022-09-28T15:51:01.703Z,95923.28
2022-09-28T15:53:31.352Z,95923.47
2022-09-28T15:56:10.054Z,95919.63
2022-09-28T15:58:39.374Z,95926.19
2022-09-28T16:01:36.403Z,95931.31
2022-09-28T16:04:51.754Z,95936.47
2022-09-28T16:07:35.468Z,95940.38
2022-09-28T16:10:30.938Z,95940.81
2022-09-28T16:13:16.124Z,95950.88
2022-09-28T16:15:44.856Z,95953.34
2022-09-28T16:18:23.502Z,95948.44
2022-09-28T16:20:54.227Z,95949.44
2022-09-28T16:23:26.841Z,95949.06
2022-09-28T16:26:00.187Z,95944.78
2022-09-28T16:28:55.787Z,95952.38
2022-09-28T16:31:33.663Z,95944.63
2022-09-28T16:34:19.837Z,95954.47
2022-09-28T16:36:50.380Z,95962.91
2022-09-28T16:39:20.673Z,95962.13
2022-09-28T16:41:53.761Z,95963.16
2022-09-28T16:44:31.821Z,95964.78
2022-09-28T16:47:01.274Z,95964.41
2022-09-28T16:49:32.251Z,95975.69
2022-09-28T16:52:02.459Z,95970.97
2022-09-28T16:54:59.616Z,95976.88
2022-09-28T16:57:29.150Z,95980.16
2022-09-28T16:59:58.851Z,95965.00
2022-09-28T17:02:45.600Z,95967.25
2022-09-28T17:05:16.863Z,95971.56
2022-09-28T17:07:46.155Z,95963.78
2022-09-28T17:10:19.302Z,95969.09
2022-09-28T17:12:47.676Z,95967.06
2022-09-28T17:15:19.529Z,95979.13
2022-09-28T17:17:48.809Z,95972.56
2022-09-28T17:20:24.109Z,95970.50
2022-09-28T17:22:53.420Z,95969.50
2022-09-28T17:25:24.531Z,95968.28
2022-09-28T17:27:55.608Z,95958.63
2022-09-28T17:30:26.593Z,95974.59
2022-09-28T17:32:54.963Z,95966.81
2022-09-28T17:35:25.023Z,95970.50
2022-09-28T17:37:54.274Z,95973.78
2022-09-28T17:40:25.289Z,95974.81
2022-09-28T17:42:56.183Z,95992.00
2022-09-28T17:45:28.494Z,95990.78
2022-09-28T17:47:57.357Z,95981.75
2022-09-28T17:50:28.595Z,95987.91
2022-09-28T17:52:59.799Z,96001.00
2022-09-28T17:55:30.480Z,95997.91
2022-09-28T17:58:01.021Z,95996.91
2022-09-28T18:00:30.842Z,96005.69
2022-09-28T18:02:59.894Z,96000.19
2022-09-28T18:05:30.268Z,96006.31
2022-09-28T18:07:59.204Z,95999.97
2022-09-28T18:10:29.785Z,96000.59
2022-09-28T18:12:58.146Z,96003.84
2022-09-28T18:15:26.477Z,96003.66
2022-09-28T18:17:56.144Z,95999.16
2022-09-28T18:20:24.468Z,95992.81
2022-09-28T18:22:52.779Z,96003.44
2022-09-28T18:25:21.085Z,96000.59
2022-09-28T18:27:49.471Z,96000.78
2022-09-28T18:30:17.910Z,95994.47
2022-09-28T18:32:46.111Z,95997.94
2022-09-28T18:35:19.371Z,96006.75
2022-09-28T18:37:50.379Z,96012.88
2022-09-28T18:40:20.102Z,96013.69
2022-09-28T18:42:50.368Z,96011.22
2022-09-28T18:45:19.691Z,96021.06
2022-09-28T18:47:48.028Z,96027.41
2022-09-28T18:50:17.921Z,96031.09
2022-09-28T18:52:47.299Z,96033.75
2022-09-28T18:55:15.896Z,96035.56
2022-09-28T18:57:44.729Z,96034.78
2022-09-28T19:00:15.212Z,96040.09
2022-09-28T19:02:44.029Z,96036.59
2022-09-28T19:05:12.374Z,96040.31
2022-09-28T19:07:42.071Z,96040.69
2022-09-28T19:10:10.733Z,96044.41
2022-09-28T19:12:38.984Z,96045.41
2022-09-28T19:15:08.907Z,96045.00
2022-09-28T19:17:37.227Z,96045.19
2022-09-28T19:20:06.731Z,96045.59
2022-09-28T19:22:35.041Z,96051.13
2022-09-28T19:25:05.035Z,96048.84
2022-09-28T19:27:33.357Z,96056.84
2022-09-28T19:30:01.694Z,96061.31
2022-09-28T19:32:30.771Z,96065.00
2022-09-28T19:34:59.396Z,96065.22
2022-09-28T19:37:27.685Z,96074.38
2022-09-28T19:39:55.961Z,96079.91
2022-09-28T19:42:25.625Z,96081.97
2022-09-28T19:44:53.890Z,96081.97
2022-09-28T19:47:22.247Z,96087.47
2022-09-28T19:49:51.358Z,96083.16
2022-09-28T19:52:19.719Z,96099.31
2022-09-28T19:54:56.771Z,96089.69
2022-09-28T19:57:29.469Z,96083.75
2022-09-28T20:00:02.445Z,96081.28
2022-09-28T20:02:31.739Z,96090.28
2022-09-28T20:05:00.052Z,96099.09
2022-09-28T20:07:32.669Z,96100.94
2022-09-28T20:10:00.976Z,96108.06
2022-09-28T20:12:30.648Z,96104.81
2022-09-28T20:14:59.244Z,96121.75
2022-09-28T20:17:27.555Z,96123.41
2022-09-28T20:19:55.825Z,96115.63
2022-09-28T20:22:24.204Z,96122.78
2022-09-28T20:24:52.438Z,96126.47
2022-09-28T20:27:24.318Z,96127.25
2022-09-28T20:29:55.955Z,96126.66
2022-09-28T20:32:24.270Z,96129.31
2022-09-28T20:34:52.578Z,96131.16
2022-09-28T20:37:20.897Z,96131.16
2022-09-28T20:39:49.208Z,96140.34
2022-09-28T20:42:17.611Z,96137.69
2022-09-28T20:44:46.136Z,96142.38
2022-09-28T20:47:15.808Z,96147.50
2022-09-28T20:49:44.461Z,96153.00
2022-09-28T20:52:12.880Z,96146.25
2022-09-28T20:54:41.177Z,96155.66
2022-09-28T20:57:18.300Z,96167.13
2022-09-28T20:59:50.853Z,96170.78
2022-09-28T21:02:23.546Z,96162.81
2022-09-28T21:04:52.003Z,96166.50
2022-09-28T21:07:20.351Z,96160.38
2022-09-28T21:09:50.468Z,96169.34
2022-09-28T21:12:19.139Z,96172.56
2022-09-28T21:14:47.402Z,96167.59
2022-09-28T21:17:15.918Z,96174.28
2022-09-28T21:19:45.575Z,96168.38
2022-09-28T21:22:14.047Z,96166.09
2022-09-28T21:24:42.325Z,96169.16
2022-09-28T21:27:10.573Z,96166.69
2022-09-28T21:29:38.770Z,96165.22
2022-09-28T21:32:08.196Z,96155.81
2022-09-28T21:34:36.851Z,96158.06
2022-09-28T21:37:06.718Z,96162.56
2022-09-28T21:39:34.970Z,96174.84
2022-09-28T21:42:03.244Z,96172.00
2022-09-28T21:44:31.447Z,96182.44
2022-09-28T21:46:59.697Z,96177.91
2022-09-28T21:49:27.926Z,96176.94
2022-09-28T21:51:56.161Z,96182.03
2022-09-28T21:54:25.833Z,96182.03
2022-09-28T21:56:54.111Z,96185.31
2022-09-28T21:59:22.391Z,96178.38
2022-09-28T22:01:50.755Z,96174.69
2022-09-28T22:04:19.104Z,96181.03
2022-09-28T22:06:47.473Z,96186.78
2022-09-28T22:09:15.685Z,96189.44
2022-09-28T22:11:45.335Z,96187.78
2022-09-28T22:14:13.709Z,96181.66
2022-09-28T22:16:42.092Z,96181.03
2022-09-28T22:19:10.398Z,96185.09
2022-09-28T22:21:39.803Z,96184.25
2022-09-28T22:24:09.208Z,96186.28
2022-09-28T22:26:39.424Z,96188.31
2022-09-28T22:29:10.618Z,96191.38
2022-09-28T22:31:40.979Z,96184.59
2022-09-28T22:34:10.303Z,96186.06
2022-09-28T22:36:38.532Z,96187.88
2022-09-28T22:39:07.122Z,96182.75
2022-09-28T22:41:35.527Z,96192.34
2022-09-28T22:44:03.872Z,96187.03
2022-09-28T22:46:33.624Z,96186.81
2022-09-28T22:49:02.366Z,96190.25
2022-09-28T22:51:31.858Z,96179.56
2022-09-28T22:54:01.177Z,96177.84
2022-09-28T22:56:30.386Z,96186.38
2022-09-28T22:58:58.942Z,96187.34
2022-09-28T23:01:29.774Z,96196.31
2022-09-28T23:04:00.845Z,96182.97
2022-09-28T23:06:30.808Z,96190.31
2022-09-28T23:08:59.335Z,96191.13
2022-09-28T23:11:28.351Z,96191.50
2022-09-28T23:13:58.806Z,96193.16
2022-09-28T23:16:27.966Z,96199.28
2022-09-28T23:18:58.740Z,96193.16
2022-09-28T23:21:28.298Z,96194.81
2022-09-28T23:24:00.970Z,96192.91
2022-09-28T23:26:32.463Z,96188.63
2022-09-28T23:29:01.293Z,96187.97
2022-09-28T23:31:31.893Z,96188.63
2022-09-28T23:34:04.977Z,96188.44
2022-09-28T23:36:34.251Z,96192.25
2022-09-28T23:39:02.760Z,96194.91
2022-09-28T23:41:31.165Z,96195.09
2022-09-28T23:43:59.446Z,96194.50
2022-09-28T23:46:28.069Z,96197.16
2022-09-28T23:48:56.537Z,96199.53
2022-09-28T23:51:26.253Z,96191.34
2022-09-28T23:53:54.581Z,96195.81
2022-09-28T23:56:22.839Z,96201.13
2022-09-28T23:58:51.084Z,96205.59
